createdAt,value
2022-10-05T00:01:34.393Z,134.1318
2022-10-05T00:06:36.034Z,110.69135
2022-10-05T00:11:37.616Z,96.8043
2022-10-05T00:16:39.425Z,91.25365
2022-10-05T00:21:42.076Z,84.3567
2022-10-05T00:26:43.949Z,73.5863
2022-10-05T00:31:45.815Z,65.93255
2022-10-05T00:36:47.895Z,51.3077
2022-10-05T00:41:49.846Z,42.06805
2022-10-05T00:46:51.537Z,34.35915
2022-10-05T00:51:53.161Z,26.8347
2022-10-05T00:56:54.752Z,24.3817
2022-10-05T01:01:56.407Z,19.0216
2022-10-05T01:06:58.101Z,14.93285
2022-10-05T01:11:59.678Z,13.77675
2022-10-05T01:17:01.374Z,8.8156
2022-10-05T01:22:03.053Z,7.7089
2022-10-05T01:27:04.649Z,3.0615
2022-10-05T01:32:06.291Z,1.2444
2022-10-05T01:37:07.908Z,0.47405
2022-10-05T01:42:09.521Z,0
2022-10-05T01:47:11.158Z,0
2022-10-05T01:52:12.734Z,0
2022-10-05T01:57:14.357Z,0
2022-10-05T02:02:16.044Z,0
2022-10-05T02:07:17.625Z,0
2022-10-05T02:12:19.225Z,0
2022-10-05T02:17:20.813Z,0
2022-10-05T02:22:22.444Z,0
2022-10-05T02:27:24.085Z,0
2022-10-05T02:32:25.688Z,0
2022-10-05T02:37:27.321Z,0
2022-10-05T02:42:28.933Z,0
2022-10-05T02:47:30.537Z,0
2022-10-05T02:52:32.121Z,0
2022-10-05T02:57:33.714Z,0
2022-10-05T03:02:35.401Z,0
2022-10-05T03:07:37.023Z,0
2022-10-05T03:12:38.609Z,0
2022-10-05T03:17:40.275Z,0
2022-10-05T03:22:41.908Z,0
2022-10-05T03:27:43.756Z,0
2022-10-05T03:43:00.035Z,0
2022-10-05T03:48:02.207Z,0
2022-10-05T03:50:20.741Z,0
2022-10-05T03:55:22.419Z,0
2022-10-05T04:00:24.000Z,0
2022-10-05T04:05:25.642Z,0
2022-10-05T04:10:27.234Z,0
2022-10-05T04:15:28.942Z,0
2022-10-05T04:20:30.524Z,0
2022-10-05T04:25:32.138Z,0
2022-10-05T04:30:33.710Z,0
2022-10-05T04:35:35.325Z,0
2022-10-05T04:40:37.052Z,0
2022-10-05T04:45:38.666Z,0
2022-10-05T04:50:40.266Z,0
2022-10-05T04:55:41.885Z,0
2022-10-05T05:00:43.539Z,0
2022-10-05T05:06:12.030Z,0
2022-10-05T05:11:19.976Z,0
2022-10-05T05:16:24.229Z,0
2022-10-05T05:21:25.877Z,0
2022-10-05T05:26:27.477Z,0
2022-10-05T05:31:29.253Z,0
2022-10-05T05:36:30.894Z,0
2022-10-05T05:41:32.460Z,0
2022-10-05T05:46:51.263Z,0
2022-10-05T05:52:03.855Z,0
2022-10-05T05:57:05.466Z,0
2022-10-05T06:02:07.195Z,0
2022-10-05T06:07:08.870Z,0
2022-10-05T06:12:10.496Z,0
2022-10-05T06:17:12.112Z,0
2022-10-05T06:22:13.736Z,0
2022-10-05T06:27:15.507Z,0
2022-10-05T06:32:17.113Z,0
2022-10-05T06:37:18.710Z,0
2022-10-05T06:42:20.281Z,0
2022-10-05T06:47:21.881Z,0
2022-10-05T06:52:23.488Z,0
2022-10-05T06:57:25.145Z,0
2022-10-05T07:02:26.876Z,0
2022-10-05T07:07:28.531Z,0
2022-10-05T07:12:30.132Z,0
2022-10-05T07:17:31.752Z,0
2022-10-05T07:22:34.343Z,0
2022-10-05T07:27:36.287Z,0
2022-10-05T07:32:37.867Z,0
2022-10-05T07:37:39.452Z,0
2022-10-05T07:42:48.987Z,0
2022-10-05T07:47:53.493Z,0
2022-10-05T07:52:55.107Z,0
2022-10-05T07:57:56.717Z,0
2022-10-05T08:02:58.574Z,0
2022-10-05T08:08:00.241Z,0
2022-10-05T08:13:01.862Z,0
2022-10-05T08:18:03.482Z,0
2022-10-05T08:23:05.068Z,0
2022-10-05T08:28:06.841Z,0
2022-10-05T08:33:08.489Z,0
2022-10-05T08:38:10.064Z,0
2022-10-05T08:43:11.776Z,0
2022-10-05T08:48:13.356Z,0
2022-10-05T08:53:14.936Z,0
2022-10-05T08:58:16.533Z,0
2022-10-05T09:03:18.243Z,0
2022-10-05T09:08:19.826Z,0
2022-10-05T09:13:21.415Z,0
2022-10-05T09:18:22.974Z,0
2022-10-05T09:23:24.596Z,0
2022-10-05T09:28:26.275Z,0
2022-10-05T09:33:27.906Z,0
2022-10-05T09:38:29.526Z,0
2022-10-05T09:43:31.125Z,0
2022-10-05T09:48:32.751Z,0
2022-10-05T09:53:34.380Z,0
2022-10-05T09:58:36.022Z,0
2022-10-05T10:03:37.633Z,0
2022-10-05T10:08:39.234Z,0
2022-10-05T10:13:40.839Z,0
2022-10-05T10:18:42.495Z,0
2022-10-05T10:23:44.110Z,0
2022-10-05T10:28:45.688Z,0
2022-10-05T10:33:47.244Z,0
2022-10-05T10:38:48.798Z,0
2022-10-05T10:43:50.481Z,0
2022-10-05T10:48:52.047Z,0
2022-10-05T10:53:53.612Z,0
2022-10-05T10:58:55.271Z,0
2022-10-05T11:03:56.877Z,0
2022-10-05T11:08:58.496Z,0
2022-10-05T11:14:00.089Z,0
2022-10-05T11:19:01.710Z,0
2022-10-05T11:24:03.301Z,0
2022-10-05T11:29:04.897Z,0
2022-10-05T11:34:06.579Z,0
2022-10-05T11:39:08.153Z,0
2022-10-05T11:44:09.733Z,0
2022-10-05T11:49:11.381Z,0
2022-10-05T11:54:12.957Z,0
2022-10-05T11:59:14.538Z,0
2022-10-05T12:04:16.195Z,0
2022-10-05T12:09:17.808Z,0
2022-10-05T12:14:19.421Z,0
2022-10-05T12:19:20.982Z,0
2022-10-05T12:24:26.668Z,0
2022-10-05T12:29:28.696Z,0
2022-10-05T12:34:30.467Z,0
2022-10-05T12:39:32.050Z,0
2022-10-05T12:44:33.655Z,0
2022-10-05T12:49:35.265Z,0
2022-10-05T12:54:36.980Z,0
2022-10-05T12:59:38.684Z,0
2022-10-05T13:04:40.310Z,0
2022-10-05T13:09:41.875Z,0
2022-10-05T13:14:43.475Z,0
2022-10-05T13:19:45.090Z,0
2022-10-05T13:24:46.659Z,0
2022-10-05T13:29:52.296Z,0
2022-10-05T13:34:55.874Z,0
2022-10-05T13:39:57.437Z,2.3237
2022-10-05T13:44:59.050Z,1.53075
2022-10-05T13:50:00.694Z,4.0389
2022-10-05T13:55:02.386Z,6.7315
2022-10-05T14:00:03.964Z,10.58595
2022-10-05T14:05:05.541Z,21.22705
2022-10-05T14:10:07.126Z,23.68005
2022-10-05T14:15:08.706Z,31.813
2022-10-05T14:20:10.309Z,41.29225
2022-10-05T14:25:11.945Z,53.0952
2022-10-05T14:30:13.609Z,69.54555
2022-10-05T14:35:15.315Z,84.83405
2022-10-05T14:40:16.936Z,79.81775
2022-10-05T14:45:18.557Z,86.6044
2022-10-05T14:50:20.174Z,79.09895
2022-10-05T14:55:21.752Z,113.3858
2022-10-05T15:00:23.454Z,342.9946
2022-10-05T15:05:25.060Z,443.6895
2022-10-05T15:10:26.639Z,326.08035
2022-10-05T15:15:28.258Z,267.34135
2022-10-05T15:20:29.868Z,535.3709
2022-10-05T15:25:31.450Z,496.7731
2022-10-05T15:30:33.079Z,418.0982
2022-10-05T15:35:34.748Z,456.51155
2022-10-05T15:40:36.402Z,347.59425
2022-10-05T15:45:38.111Z,433.12995
2022-10-05T15:50:39.738Z,349.56805
2022-10-05T15:55:41.282Z,271.3393
2022-10-05T16:00:42.920Z,281.05745
2022-10-05T16:05:44.509Z,294.2126
2022-10-05T16:10:46.066Z,297.7088
2022-10-05T16:15:47.698Z,298.30145
2022-10-05T16:20:49.333Z,334.0335
2022-10-05T16:25:50.943Z,398.62405
2022-10-05T16:30:52.614Z,438.56355
2022-10-05T16:35:54.246Z,426.88945
2022-10-05T16:41:01.055Z,424.2819
2022-10-05T16:46:03.539Z,437.97015
2022-10-05T16:51:05.154Z,445.73275
2022-10-05T16:56:06.770Z,462.73965
2022-10-05T17:01:08.624Z,460.78395
2022-10-05T17:06:10.295Z,452.25075
2022-10-05T17:11:16.017Z,442.7102
2022-10-05T17:16:18.616Z,445.0804
2022-10-05T17:21:20.247Z,447.80625
2022-10-05T17:26:21.830Z,438.68045
2022-10-05T17:31:23.551Z,435.30275
2022-10-05T17:36:25.191Z,431.451
2022-10-05T17:41:26.816Z,461.02055
2022-10-05T17:46:28.453Z,524.95965
2022-10-05T17:51:30.125Z,573.0176
2022-10-05T17:56:31.738Z,594.46885
2022-10-05T18:01:33.460Z,585.16535
2022-10-05T18:06:35.081Z,564.01035
2022-10-05T18:11:36.679Z,544.6924
2022-10-05T18:16:38.280Z,528.5149
2022-10-05T18:21:39.925Z,516.9596
2022-10-05T18:26:41.558Z,528.9296
2022-10-05T18:31:43.164Z,539.6553
2022-10-05T18:36:44.749Z,531.12215
2022-10-05T18:41:46.358Z,493.07885
2022-10-05T18:46:47.971Z,460.19135
2022-10-05T18:51:51.853Z,436.13305
2022-10-05T18:56:53.875Z,465.88
2022-10-05T19:01:55.651Z,471.92435
2022-10-05T19:06:57.290Z,462.68015
2022-10-05T19:11:58.903Z,471.50935
2022-10-05T19:17:00.476Z,346.89185
2022-10-05T19:22:02.097Z,391.6899
2022-10-05T19:27:03.688Z,446.44335
2022-10-05T19:32:05.282Z,377.9423
2022-10-05T19:37:06.943Z,314.478
2022-10-05T19:42:08.576Z,533.5511
2022-10-05T19:47:10.182Z,524.78145
2022-10-05T19:52:11.836Z,479.21315
2022-10-05T19:57:13.426Z,491.6573
2022-10-05T20:02:15.061Z,551.38855
2022-10-05T20:07:16.635Z,502.9162
2022-10-05T20:12:18.218Z,522.94515
2022-10-05T20:17:19.810Z,530.29305
2022-10-05T20:22:21.404Z,426.35615
2022-10-05T20:27:23.046Z,445.97025
2022-10-05T20:32:28.543Z,437.91115
2022-10-05T20:37:32.120Z,484.7835
2022-10-05T20:42:33.706Z,485.07965
2022-10-05T20:47:35.308Z,395.06795
2022-10-05T20:52:36.941Z,338.35885
2022-10-05T20:57:38.526Z,340.8477
2022-10-05T21:02:40.114Z,333.0257
2022-10-05T21:07:41.672Z,400.2231
2022-10-05T21:12:43.262Z,275.9611
2022-10-05T21:17:44.885Z,305.58965
2022-10-05T21:22:46.509Z,320.7595
2022-10-05T21:27:48.118Z,448.69555
2022-10-05T21:32:49.703Z,383.45365
2022-10-05T21:37:51.307Z,329.82595
2022-10-05T21:42:52.976Z,352.63995
2022-10-05T21:47:54.568Z,344.58105
2022-10-05T21:52:56.231Z,383.1574
2022-10-05T21:57:57.955Z,325.7965
2022-10-05T22:02:59.556Z,321.5299
2022-10-05T22:08:01.160Z,400.2826
2022-10-05T22:13:02.948Z,426.9484
2022-10-05T22:18:04.541Z,365.5581
2022-10-05T22:23:06.154Z,476.13165
2022-10-05T22:28:07.830Z,357.61745
2022-10-05T22:33:09.501Z,258.77655
2022-10-05T22:38:11.066Z,318.27065
2022-10-05T22:43:12.646Z,306.6562
2022-10-05T22:48:14.453Z,278.21275
2022-10-05T22:53:16.034Z,218.3631
2022-10-05T22:58:17.629Z,202.9562
2022-10-05T23:03:19.246Z,205.2672
2022-10-05T23:08:20.818Z,179.43105
2022-10-05T23:13:22.436Z,177.12
2022-10-05T23:18:24.016Z,177.7718
2022-10-05T23:23:25.632Z,139.6102
2022-10-05T23:28:27.563Z,154.72075
2022-10-05T23:33:29.572Z,168.9424
2022-10-05T23:38:31.505Z,146.72095
2022-10-05T23:43:33.465Z,117.2702
2022-10-05T23:48:35.104Z,104.3522
2022-10-05T23:53:36.705Z,100.02645
2022-10-05T23:58:38.277Z,90.78225
